createdAt,value
2017-08-29T03:30:49.701Z,67.70
2017-08-29T03:33:17.305Z,68.40
2017-08-29T03:35:44.913Z,68.80
2017-08-29T03:38:12.880Z,68.90
2017-08-29T03:40:40.477Z,69.30
2017-08-29T03:43:08.084Z,69.80
2017-08-29T03:45:36.086Z,69.50
2017-08-29T03:48:03.712Z,69.50
2017-08-29T03:50:31.315Z,70.70
2017-08-29T03:52:59.279Z,69.70
2017-08-29T03:55:26.909Z,69.30
2017-08-29T03:57:54.512Z,69.30
2017-08-29T04:00:22.556Z,69.80
2017-08-29T04:02:50.180Z,69.50
2017-08-29T04:05:17.793Z,71.00
2017-08-29T04:07:45.858Z,71.10
2017-08-29T04:10:13.474Z,70.40
2017-08-29T04:12:41.069Z,68.80
2017-08-29T04:15:09.050Z,67.80
2017-08-29T04:17:36.670Z,67.80
2017-08-29T04:20:04.276Z,68.30
2017-08-29T04:22:32.247Z,68.30
2017-08-29T04:24:59.875Z,68.10
2017-08-29T04:27:27.492Z,68.30
2017-08-29T04:29:55.537Z,67.30
2017-08-29T04:32:23.198Z,66.40
2017-08-29T04:34:50.818Z,65.70
2017-08-29T04:37:18.830Z,65.00
2017-08-29T04:39:46.463Z,64.80
2017-08-29T04:42:14.065Z,64.60
2017-08-29T04:44:42.045Z,64.70
2017-08-29T04:47:09.662Z,64.80
2017-08-29T04:49:37.275Z,64.70
2017-08-29T04:52:05.237Z,65.30
2017-08-29T04:54:32.841Z,65.60
2017-08-29T04:57:00.432Z,65.10
2017-08-29T04:59:28.402Z,64.90
2017-08-29T05:01:55.982Z,64.50
2017-08-29T05:04:23.588Z,63.70
2017-08-29T05:06:51.586Z,63.40
2017-08-29T05:09:19.170Z,63.40
2017-08-29T05:11:46.782Z,63.30
2017-08-29T05:14:14.742Z,64.10
2017-08-29T05:16:42.349Z,64.60
2017-08-29T05:19:09.968Z,64.80
2017-08-29T05:21:37.982Z,64.80
2017-08-29T05:24:05.592Z,64.20
2017-08-29T05:26:33.201Z,63.40
2017-08-29T05:29:01.269Z,63.10
2017-08-29T05:31:28.871Z,62.20
2017-08-29T05:33:56.463Z,61.40
2017-08-29T05:36:24.457Z,60.90
2017-08-29T05:38:52.070Z,60.30
2017-08-29T05:41:19.675Z,60.50
2017-08-29T05:43:47.653Z,60.60
2017-08-29T05:46:15.262Z,59.90
2017-08-29T05:48:42.883Z,59.60
2017-08-29T05:51:10.931Z,59.40
2017-08-29T05:53:38.556Z,59.50
2017-08-29T05:56:06.208Z,59.40
2017-08-29T05:58:34.190Z,59.60
2017-08-29T06:01:01.794Z,59.60
2017-08-29T06:03:29.414Z,59.30
2017-08-29T06:05:57.610Z,59.10
2017-08-29T06:08:25.220Z,59.00
2017-08-29T06:10:55.213Z,59.10
2017-08-29T06:13:23.227Z,59.20
2017-08-29T06:15:50.838Z,59.00
2017-08-29T06:18:18.478Z,58.50
2017-08-29T06:20:46.567Z,59.00
2017-08-29T06:23:14.243Z,58.90
2017-08-29T06:25:41.871Z,58.70
2017-08-29T06:28:09.865Z,59.20
2017-08-29T06:30:37.561Z,59.30
2017-08-29T06:33:05.186Z,59.60
2017-08-29T06:35:33.257Z,59.50
2017-08-29T06:38:00.932Z,59.10
2017-08-29T06:40:28.557Z,58.90
2017-08-29T06:42:56.580Z,58.30
2017-08-29T06:45:24.371Z,57.90
2017-08-29T06:47:51.990Z,58.10
2017-08-29T06:50:20.060Z,58.20
2017-08-29T06:52:47.676Z,58.30
2017-08-29T06:55:15.352Z,58.00
2017-08-29T06:57:43.451Z,57.80
2017-08-29T07:00:11.878Z,58.10
2017-08-29T07:02:39.484Z,58.10
2017-08-29T07:05:07.491Z,57.20
2017-08-29T07:07:35.104Z,57.10
2017-08-29T07:10:02.727Z,57.20
2017-08-29T07:12:30.763Z,57.20
2017-08-29T07:14:59.129Z,55.80
2017-08-29T07:17:26.733Z,55.80
2017-08-29T07:19:55.311Z,55.50
2017-08-29T07:22:22.918Z,55.60
2017-08-29T07:24:50.531Z,55.60
2017-08-29T07:27:18.507Z,55.70
2017-08-29T07:29:46.110Z,55.90
2017-08-29T07:32:13.737Z,55.50
2017-08-29T07:34:41.808Z,55.20
2017-08-29T07:37:09.504Z,54.40
2017-08-29T07:39:37.135Z,54.30
2017-08-29T07:42:05.299Z,53.50
2017-08-29T07:44:32.976Z,53.40
2017-08-29T07:47:00.625Z,54.10
2017-08-29T07:49:28.650Z,52.50
2017-08-29T07:51:56.363Z,52.30
2017-08-29T07:54:24.002Z,52.80
2017-08-29T07:56:52.034Z,51.60
2017-08-29T07:59:19.659Z,51.60
2017-08-29T08:01:47.447Z,51.40
2017-08-29T08:04:15.597Z,51.20
2017-08-29T08:06:43.310Z,51.30
2017-08-29T08:09:10.914Z,50.70
2017-08-29T08:11:38.929Z,51.40
2017-08-29T08:14:06.711Z,50.80
2017-08-29T08:16:34.322Z,50.40
2017-08-29T08:19:02.327Z,49.60
2017-08-29T08:21:29.935Z,50.00
2017-08-29T08:23:57.536Z,49.90
2017-08-29T08:26:25.630Z,49.50
2017-08-29T08:28:53.234Z,49.30
2017-08-29T08:31:20.833Z,48.60
2017-08-29T08:33:48.816Z,49.00
2017-08-29T08:36:16.421Z,48.50
2017-08-29T08:38:46.202Z,47.90
2017-08-29T08:41:14.542Z,47.80
2017-08-29T08:43:42.312Z,46.60
2017-08-29T08:46:09.923Z,46.90
2017-08-29T08:48:38.049Z,45.20
2017-08-29T08:51:06.742Z,46.40
2017-08-29T08:53:34.449Z,44.50
2017-08-29T08:56:02.702Z,43.00
2017-08-29T08:58:30.315Z,41.30
2017-08-29T09:00:58.115Z,39.70
2017-08-29T09:03:26.200Z,39.00
2017-08-29T09:05:53.888Z,37.20
2017-08-29T09:08:21.633Z,36.40
2017-08-29T09:10:49.683Z,36.20
2017-08-29T09:13:17.299Z,36.10
2017-08-29T09:15:44.913Z,36.40
2017-08-29T09:18:13.000Z,36.20
2017-08-29T09:20:40.623Z,34.30
2017-08-29T09:23:08.251Z,32.40
2017-08-29T09:25:36.468Z,32.10
2017-08-29T09:28:04.236Z,32.00
2017-08-29T09:30:31.838Z,31.30
2017-08-29T09:32:59.853Z,32.30
2017-08-29T09:35:27.486Z,30.70
2017-08-29T09:37:55.109Z,30.00
2017-08-29T09:40:23.059Z,29.20
2017-08-29T09:42:50.697Z,27.80
2017-08-29T09:45:18.300Z,26.80
2017-08-29T09:47:47.188Z,25.10
2017-08-29T09:50:14.800Z,25.10
2017-08-29T09:52:42.426Z,24.20
2017-08-29T09:55:10.381Z,24.90
2017-08-29T09:57:38.089Z,25.70
2017-08-29T10:00:05.721Z,26.40
2017-08-29T10:02:33.712Z,24.20
2017-08-29T10:05:01.326Z,23.80
2017-08-29T10:07:28.926Z,23.40
2017-08-29T10:09:56.988Z,26.80
2017-08-29T10:12:24.777Z,29.90
2017-08-29T10:14:52.479Z,27.20
2017-08-29T10:17:21.278Z,29.20
2017-08-29T10:19:48.894Z,28.70
2017-08-29T10:22:16.541Z,26.30
2017-08-29T10:24:44.563Z,27.50
2017-08-29T10:27:12.186Z,29.10
2017-08-29T10:29:39.824Z,27.10
2017-08-29T10:32:07.838Z,27.90
2017-08-29T10:34:35.445Z,29.40
2017-08-29T10:37:03.046Z,25.90
2017-08-29T10:39:31.041Z,23.90
2017-08-29T10:41:58.660Z,26.00
2017-08-29T10:44:26.319Z,28.60
2017-08-29T10:46:54.288Z,28.10
2017-08-29T10:49:22.095Z,24.50
2017-08-29T10:51:49.761Z,22.70
2017-08-29T10:54:17.718Z,20.70
2017-08-29T10:56:45.415Z,23.70
2017-08-29T10:59:13.139Z,26.40
2017-08-29T11:01:41.153Z,23.80
2017-08-29T11:04:08.933Z,24.90
2017-08-29T11:06:36.823Z,27.60
2017-08-29T11:09:04.773Z,28.60
2017-08-29T11:11:32.375Z,25.70
2017-08-29T11:13:59.988Z,22.80
2017-08-29T11:16:27.974Z,22.70
2017-08-29T11:18:55.590Z,24.20
2017-08-29T11:21:23.205Z,24.70
2017-08-29T11:23:51.474Z,23.50
2017-08-29T11:26:19.220Z,22.10
2017-08-29T11:28:46.913Z,20.80
2017-08-29T11:31:14.664Z,19.10
2017-08-29T11:33:42.456Z,18.10
2017-08-29T11:36:10.069Z,17.00
2017-08-29T11:38:37.979Z,16.20
2017-08-29T11:41:05.582Z,15.20
2017-08-29T11:43:33.256Z,15.40
2017-08-29T11:46:01.147Z,14.60
2017-08-29T11:48:28.742Z,13.90
2017-08-29T11:50:56.367Z,13.00
2017-08-29T11:53:24.309Z,13.20
2017-08-29T11:55:51.938Z,13.20
2017-08-29T11:58:19.564Z,14.00
2017-08-29T12:00:47.486Z,13.90
2017-08-29T12:03:15.271Z,14.20
2017-08-29T12:05:42.903Z,14.50
2017-08-29T12:08:10.874Z,14.10
2017-08-29T12:10:38.503Z,14.00
2017-08-29T12:13:06.113Z,14.20
2017-08-29T12:15:34.146Z,14.70
2017-08-29T12:18:02.297Z,15.10
2017-08-29T12:20:29.913Z,15.60
2017-08-29T12:22:57.917Z,15.90
2017-08-29T12:25:25.537Z,17.20
2017-08-29T12:27:53.144Z,17.00
2017-08-29T12:30:21.152Z,17.90
2017-08-29T12:32:48.854Z,19.30
2017-08-29T12:35:16.460Z,20.10
2017-08-29T12:37:44.483Z,20.50
2017-08-29T12:40:12.102Z,20.70
2017-08-29T12:42:39.711Z,20.90
2017-08-29T12:45:07.693Z,22.20
2017-08-29T12:47:35.355Z,23.20
2017-08-29T12:50:03.075Z,23.60
2017-08-29T12:52:31.031Z,23.90
2017-08-29T12:54:58.666Z,25.00
2017-08-29T12:57:26.289Z,25.10
2017-08-29T12:59:54.247Z,25.70
2017-08-29T13:02:21.853Z,26.30
2017-08-29T13:04:49.458Z,27.10
2017-08-29T13:07:17.516Z,27.50
2017-08-29T13:09:45.128Z,27.80
2017-08-29T13:12:12.729Z,28.50
2017-08-29T13:14:40.668Z,29.20
2017-08-29T13:17:08.723Z,30.00
2017-08-29T13:19:36.419Z,30.00
2017-08-29T13:22:04.517Z,30.80
2017-08-29T13:24:32.207Z,29.90
2017-08-29T13:27:00.333Z,31.00
2017-08-29T13:29:28.668Z,30.60
2017-08-29T13:31:56.274Z,30.00
2017-08-29T13:34:23.876Z,30.00
2017-08-29T13:36:51.897Z,30.00
2017-08-29T13:39:19.510Z,30.70
2017-08-29T13:41:47.883Z,30.80
2017-08-29T13:44:15.870Z,30.80
2017-08-29T13:46:44.035Z,30.80
2017-08-29T13:49:11.695Z,30.70
2017-08-29T13:51:39.726Z,32.10
2017-08-29T13:54:07.340Z,32.10
2017-08-29T13:56:34.927Z,32.70
2017-08-29T13:59:02.885Z,32.90
2017-08-29T14:01:30.493Z,31.10
2017-08-29T14:03:58.188Z,32.70
2017-08-29T14:06:26.368Z,33.00
2017-08-29T14:08:53.993Z,33.60
2017-08-29T14:11:21.595Z,33.80
2017-08-29T14:13:49.649Z,32.20
2017-08-29T14:16:17.269Z,32.50
2017-08-29T14:18:44.877Z,32.00
2017-08-29T14:21:12.899Z,33.50
2017-08-29T14:23:40.618Z,32.50
2017-08-29T14:26:08.204Z,32.10
2017-08-29T14:28:36.570Z,32.90
2017-08-29T14:31:04.208Z,34.00
2017-08-29T14:33:31.825Z,36.00
2017-08-29T14:35:59.854Z,34.70
2017-08-29T14:38:28.188Z,34.60
2017-08-29T14:40:56.791Z,34.80
2017-08-29T14:43:24.825Z,34.10
2017-08-29T14:45:52.438Z,34.20
2017-08-29T14:51:17.991Z,33.60
2017-08-29T14:53:46.109Z,33.20
2017-08-29T14:56:14.022Z,32.30
2017-08-29T14:58:41.636Z,33.70
2017-08-29T15:01:09.681Z,34.50
2017-08-29T15:03:37.295Z,34.50
2017-08-29T15:06:04.979Z,34.70
2017-08-29T15:08:32.962Z,34.60
2017-08-29T15:11:00.599Z,34.50
2017-08-29T15:13:28.198Z,35.00
2017-08-29T15:15:56.286Z,34.90
2017-08-29T15:18:24.099Z,35.00
2017-08-29T15:20:52.767Z,35.40
2017-08-29T15:23:24.848Z,35.60
2017-08-29T15:25:52.545Z,35.00
2017-08-29T15:28:20.157Z,35.70
2017-08-29T15:30:48.293Z,35.00
2017-08-29T15:33:16.050Z,35.40
2017-08-29T15:35:43.637Z,36.10
2017-08-29T15:38:11.604Z,35.70
2017-08-29T15:40:39.220Z,36.40
2017-08-29T15:43:06.818Z,36.00
2017-08-29T15:45:34.882Z,34.70
2017-08-29T15:48:02.484Z,36.00
2017-08-29T15:50:30.094Z,36.70
2017-08-29T15:52:58.168Z,36.00
2017-08-29T15:55:25.797Z,35.70
2017-08-29T15:57:53.415Z,36.60
2017-08-29T16:00:21.516Z,36.20
2017-08-29T16:02:49.148Z,35.90
2017-08-29T16:05:16.765Z,35.60
2017-08-29T16:07:44.776Z,35.40
2017-08-29T16:10:12.453Z,35.90
2017-08-29T16:12:40.068Z,35.80
2017-08-29T16:15:08.574Z,36.70
2017-08-29T16:17:36.197Z,36.60
2017-08-29T16:20:04.607Z,36.50
2017-08-29T16:22:32.574Z,36.80
2017-08-29T16:25:00.262Z,36.70
2017-08-29T16:27:27.899Z,36.40
2017-08-29T16:29:55.861Z,37.00
2017-08-29T16:32:23.500Z,36.90
2017-08-29T16:34:51.100Z,36.90
2017-08-29T16:37:19.194Z,36.80
2017-08-29T16:39:46.801Z,36.10
2017-08-29T16:42:14.413Z,35.60
2017-08-29T16:44:42.396Z,36.40
2017-08-29T16:47:09.997Z,36.50
2017-08-29T16:49:37.625Z,36.50
2017-08-29T16:52:05.632Z,36.10
2017-08-29T16:54:33.294Z,37.10
2017-08-29T16:57:00.909Z,37.60
2017-08-29T16:59:28.912Z,37.10
2017-08-29T17:01:56.572Z,36.90
2017-08-29T17:04:24.175Z,37.60
2017-08-29T17:06:52.184Z,37.60
2017-08-29T17:09:19.789Z,37.40
2017-08-29T17:11:47.394Z,37.30
2017-08-29T17:14:15.387Z,37.10
2017-08-29T17:16:43.141Z,37.60
2017-08-29T17:19:10.755Z,37.80
2017-08-29T17:21:38.726Z,37.80
2017-08-29T17:24:06.334Z,37.50
2017-08-29T17:26:33.977Z,37.70
2017-08-29T17:29:02.007Z,38.20
2017-08-29T17:31:29.621Z,37.70
2017-08-29T17:33:57.302Z,37.80
2017-08-29T17:36:25.385Z,37.80
2017-08-29T17:38:52.996Z,38.00
2017-08-29T17:41:21.369Z,38.30
2017-08-29T17:43:49.341Z,38.30
2017-08-29T17:46:16.940Z,38.50
2017-08-29T17:48:44.556Z,38.50
2017-08-29T17:51:12.549Z,38.50
2017-08-29T17:53:40.166Z,38.60
2017-08-29T17:56:08.023Z,38.80
2017-08-29T17:58:35.971Z,39.00
2017-08-29T18:01:03.661Z,39.30
2017-08-29T18:03:31.287Z,39.60
2017-08-29T18:05:59.302Z,39.70
2017-08-29T18:08:26.921Z,40.20
2017-08-29T18:10:54.568Z,40.30
2017-08-29T18:13:22.581Z,40.70
2017-08-29T18:15:50.230Z,40.80
2017-08-29T18:18:17.869Z,40.90
2017-08-29T18:20:45.914Z,40.80
2017-08-29T18:23:13.512Z,40.90
2017-08-29T18:25:41.125Z,40.70
2017-08-29T18:28:09.086Z,40.80
2017-08-29T18:30:36.710Z,40.80
2017-08-29T18:33:04.350Z,40.70
2017-08-29T18:35:33.987Z,40.80
2017-08-29T18:38:03.104Z,40.60
2017-08-29T18:40:30.785Z,40.60
2017-08-29T18:43:00.373Z,39.90
2017-08-29T18:45:28.085Z,39.80
2017-08-29T18:47:55.718Z,39.70
2017-08-29T18:50:23.821Z,39.70
2017-08-29T18:52:51.544Z,39.80
2017-08-29T18:55:19.575Z,39.80
2017-08-29T18:57:47.554Z,39.80
2017-08-29T19:00:15.209Z,40.00
2017-08-29T19:02:42.840Z,40.00
2017-08-29T19:05:10.868Z,39.90
2017-08-29T19:07:39.144Z,40.10
2017-08-29T19:10:07.201Z,40.10
2017-08-29T19:12:36.230Z,40.90
2017-08-29T19:15:03.929Z,40.20
2017-08-29T19:17:31.598Z,40.40
2017-08-29T19:19:59.718Z,40.30
2017-08-29T19:22:28.138Z,40.60
2017-08-29T19:24:55.794Z,41.20
2017-08-29T19:27:23.475Z,40.30
2017-08-29T19:29:51.846Z,40.10
2017-08-29T19:32:19.506Z,40.20
2017-08-29T19:34:47.189Z,40.10
2017-08-29T19:37:14.861Z,40.10
2017-08-29T19:39:43.290Z,40.10
2017-08-29T19:42:11.655Z,40.40
2017-08-29T19:44:39.293Z,40.50
2017-08-29T19:47:07.312Z,40.30
2017-08-29T19:49:35.037Z,40.30
2017-08-29T19:52:02.787Z,40.40
2017-08-29T19:54:30.933Z,40.30
2017-08-29T19:56:58.784Z,40.10
2017-08-29T19:59:26.497Z,40.40
2017-08-29T20:01:54.930Z,40.50
2017-08-29T20:04:22.629Z,40.40
2017-08-29T20:06:50.353Z,40.50
2017-08-29T20:09:18.378Z,40.60
2017-08-29T20:11:46.684Z,40.60
2017-08-29T20:14:14.367Z,40.70
2017-08-29T20:16:42.360Z,41.00
2017-08-29T20:19:12.869Z,41.80
2017-08-29T20:21:40.608Z,42.00
2017-08-29T20:24:08.666Z,41.80
2017-08-29T20:26:36.848Z,41.50
2017-08-29T20:29:04.570Z,41.20
2017-08-29T20:31:32.217Z,41.10
2017-08-29T20:34:01.275Z,41.10
2017-08-29T20:36:28.960Z,41.30
2017-08-29T20:38:56.654Z,41.00
2017-08-29T20:41:24.750Z,41.20
2017-08-29T20:43:53.510Z,41.50
2017-08-29T20:46:21.194Z,41.60
2017-08-29T20:48:50.120Z,42.20
2017-08-29T20:51:17.816Z,42.10
2017-08-29T20:53:45.530Z,42.10
2017-08-29T20:56:13.628Z,42.50
2017-08-29T20:58:41.304Z,41.80
2017-08-29T21:01:08.935Z,42.20
2017-08-29T21:03:36.984Z,42.00
2017-08-29T21:06:05.107Z,41.30
2017-08-29T21:08:32.818Z,41.10
2017-08-29T21:11:00.896Z,41.50
2017-08-29T21:13:28.581Z,41.70
2017-08-29T21:15:56.331Z,41.70
2017-08-29T21:18:24.455Z,41.40
2017-08-29T21:20:52.205Z,41.20
2017-08-29T21:23:19.886Z,41.60
2017-08-29T21:25:48.291Z,41.00
2017-08-29T21:28:15.909Z,41.40
2017-08-29T21:30:43.601Z,42.00
2017-08-29T21:33:12.413Z,43.00
2017-08-29T21:35:40.044Z,42.90
2017-08-29T21:38:07.866Z,43.00
2017-08-29T21:40:35.889Z,43.00
2017-08-29T21:43:03.598Z,43.30
2017-08-29T21:45:31.247Z,44.00
2017-08-29T21:47:59.238Z,43.40
2017-08-29T21:50:26.835Z,43.60
2017-08-29T21:52:54.705Z,44.10
2017-08-29T21:55:22.672Z,44.30
2017-08-29T21:57:50.279Z,43.90
2017-08-29T22:00:17.867Z,44.20
2017-08-29T22:02:45.818Z,44.40
2017-08-29T22:05:13.420Z,44.60
2017-08-29T22:07:41.024Z,44.50
2017-08-29T22:10:09.109Z,44.80
2017-08-29T22:12:36.716Z,44.70
2017-08-29T22:15:04.322Z,45.10
2017-08-29T22:17:32.295Z,45.30
2017-08-29T22:19:59.883Z,45.40
2017-08-29T22:22:27.487Z,45.20
2017-08-29T22:24:55.421Z,45.10
2017-08-29T22:27:23.061Z,45.20
2017-08-29T22:29:50.660Z,45.40
